F/V Anna Mamm Mari — FOHD — position and weather

sailwx.info

Track history (hours):
 
Tides and Currents Weather Stations Pressure Air Temp Water Temp Dewpoint Dewpoint Depression Visibility Wind Speed Wind Dir Waves Ship Positions

F/V Anna Mamm Mari

Last reported at 2016-Mar-26 14:33 UTC. Time now 2016-May-05 16:15 UTC.
Position N 47°44' W 003°22'.
Warning: this ship's position is 40 days out of date.

Length 17 m.

Type: Fishing. MMSI: 228393000.

Date/timePositionNaut miles runAvg speedWind from/ knotsBaromVisibWave heightAir tempDewpointWater temp
2016-Mar-26 14:33N 47°44' W 003°22'0 0.0
2016-Mar-26 13:33N 47°44' W 003°22'0 0.0
2016-Mar-26 12:33N 47°44' W 003°22'0 0.0
2016-Mar-26 11:33N 47°44' W 003°22'0 0.0
2016-Mar-26 10:33N 47°44' W 003°22'0 0.0
2016-Mar-26 09:33N 47°44' W 003°22'0 0.0
2016-Mar-26 08:33N 47°44' W 003°22'0 0.0
2016-Mar-26 07:33N 47°44' W 003°22'0 0.0
2016-Mar-26 06:33N 47°44' W 003°22'0 0.0
2016-Mar-26 05:33N 47°44' W 003°22'0 0.0
2016-Mar-26 04:33N 47°44' W 003°22'0 0.0
2016-Mar-26 03:33N 47°44' W 003°22'0 0.0
2016-Mar-26 02:33N 47°44' W 003°22'0 0.0
2016-Mar-26 01:33N 47°44' W 003°22'0 0.0
2016-Mar-26 00:33N 47°44' W 003°22'0 0.0
2016-Mar-25 23:33N 47°44' W 003°22'0 0.0
2016-Mar-25 22:33N 47°44' W 003°22'0 0.0
2016-Mar-25 21:33N 47°44' W 003°22'0 0.0
2016-Mar-25 20:33N 47°44' W 003°22'0 0.0
2016-Mar-25 19:33N 47°44' W 003°22'0 0.0
2016-Mar-25 18:33N 47°44' W 003°22'0 0.0
2016-Mar-25 17:33N 47°44' W 003°22'0 0.0
2016-Mar-25 16:33N 47°44' W 003°22'0 0.0
2016-Mar-25 15:33N 47°44' W 003°22'0 0.0
2016-Mar-25 14:33N 47°44' W 003°22'4 3.6
2016-Mar-25 13:33N 47°40' W 003°22'9 8.5
2016-Mar-25 12:33N 47°33' W 003°15'8 8.5
2016-Mar-25 11:34N 47°26' W 003°08'9 8.7
2016-Mar-25 10:33N 47°19' W 002°60'17 8.4
2016-Mar-25 08:31N 47°06' W 002°44'40 7.7
2016-Mar-25 03:19N 46°37' W 002°03'6 7.9
2016-Mar-25 02:33N 46°33' W 001°57'8 7.7
2016-Mar-25 01:33N 46°28' W 001°48'1 1.5
2016-Mar-25 00:33N 46°30' W 001°47'0 0.0
2016-Mar-24 23:33N 46°30' W 001°47'0 0.0
2016-Mar-24 22:33N 46°30' W 001°47'0 0.0
2016-Mar-24 21:33N 46°30' W 001°47'4 4.0
2016-Mar-24 20:33N 46°29' W 001°53'9 8.5
2016-Mar-24 19:30N 46°33' W 002°05'  
2016-Mar-20 23:33N 46°31' W 002°01'9 8.6
2016-Mar-20 22:33N 46°29' W 001°49'1 1.4
2016-Mar-20 21:33N 46°30' W 001°48'0 0.0
2016-Mar-20 20:33N 46°30' W 001°48'0 0.0
2016-Mar-20 19:33N 46°30' W 001°48'0 0.0
2016-Mar-20 18:33N 46°30' W 001°48'0 0.0
2016-Mar-20 17:33N 46°30' W 001°48'0 0.0
2016-Mar-20 16:33N 46°30' W 001°48'0 0.0
2016-Mar-20 15:33N 46°30' W 001°48'0 0.0
2016-Mar-20 14:33N 46°30' W 001°48'0 0.0
2016-Mar-20 13:33N 46°30' W 001°48'0 0.2
2016-Mar-20 12:33N 46°30' W 001°47'3 3.3
2016-Mar-20 11:33N 46°28' W 001°51'9 8.6
2016-Mar-20 10:33N 46°35' W 001°59'  
2016-Mar-17 02:19N 46°34' W 002°07'7 9.0
2016-Mar-17 01:32N 46°31' W 001°57'7 7.0
2016-Mar-17 00:33N 46°30' W 001°48'0 0.5
2016-Mar-16 23:33N 46°30' W 001°47'0 0.0
2016-Mar-16 22:33N 46°30' W 001°47'4 3.9
2016-Mar-16 21:33N 46°29' W 001°53'9 8.9
2016-Mar-16 20:31N 46°32' W 002°05'  
Track history (hours):
 
Tides and Currents Weather Stations Pressure Air Temp Water Temp Dewpoint Dewpoint Depression Visibility Wind Speed Wind Dir Waves Ship Positions

F/V Anna Mamm Mari

Last reported at 2016-Mar-26 14:33 UTC. Time now 2016-May-05 16:15 UTC.
Position N 47°44' W 003°22'.
Warning: this ship's position is 40 days out of date.

Length 17 m.

Type: Fishing. MMSI: 228393000.

Date/timePositionNaut miles runAvg speedWind from/ knotsBaromVisibWave heightAir tempDewpointWater temp
2016-Mar-26 14:33N 47°44' W 003°22'0 0.0
2016-Mar-26 13:33N 47°44' W 003°22'0 0.0
2016-Mar-26 12:33N 47°44' W 003°22'0 0.0
2016-Mar-26 11:33N 47°44' W 003°22'0 0.0
2016-Mar-26 10:33N 47°44' W 003°22'0 0.0
2016-Mar-26 09:33N 47°44' W 003°22'0 0.0
2016-Mar-26 08:33N 47°44' W 003°22'0 0.0
2016-Mar-26 07:33N 47°44' W 003°22'0 0.0
2016-Mar-26 06:33N 47°44' W 003°22'0 0.0
2016-Mar-26 05:33N 47°44' W 003°22'0 0.0
2016-Mar-26 04:33N 47°44' W 003°22'0 0.0
2016-Mar-26 03:33N 47°44' W 003°22'0 0.0
2016-Mar-26 02:33N 47°44' W 003°22'0 0.0
2016-Mar-26 01:33N 47°44' W 003°22'0 0.0
2016-Mar-26 00:33N 47°44' W 003°22'0 0.0
2016-Mar-25 23:33N 47°44' W 003°22'0 0.0
2016-Mar-25 22:33N 47°44' W 003°22'0 0.0
2016-Mar-25 21:33N 47°44' W 003°22'0 0.0
2016-Mar-25 20:33N 47°44' W 003°22'0 0.0
2016-Mar-25 19:33N 47°44' W 003°22'0 0.0
2016-Mar-25 18:33N 47°44' W 003°22'0 0.0
2016-Mar-25 17:33N 47°44' W 003°22'0 0.0
2016-Mar-25 16:33N 47°44' W 003°22'0 0.0
2016-Mar-25 15:33N 47°44' W 003°22'0 0.0
2016-Mar-25 14:33N 47°44' W 003°22'4 3.6
2016-Mar-25 13:33N 47°40' W 003°22'9 8.5
2016-Mar-25 12:33N 47°33' W 003°15'8 8.5
2016-Mar-25 11:34N 47°26' W 003°08'9 8.7
2016-Mar-25 10:33N 47°19' W 002°60'17 8.4
2016-Mar-25 08:31N 47°06' W 002°44'40 7.7
2016-Mar-25 03:19N 46°37' W 002°03'6 7.9
2016-Mar-25 02:33N 46°33' W 001°57'8 7.7
2016-Mar-25 01:33N 46°28' W 001°48'1 1.5
2016-Mar-25 00:33N 46°30' W 001°47'0 0.0
2016-Mar-24 23:33N 46°30' W 001°47'0 0.0
2016-Mar-24 22:33N 46°30' W 001°47'0 0.0
2016-Mar-24 21:33N 46°30' W 001°47'4 4.0
2016-Mar-24 20:33N 46°29' W 001°53'9 8.5
2016-Mar-24 19:30N 46°33' W 002°05'  
2016-Mar-20 23:33N 46°31' W 002°01'9 8.6
2016-Mar-20 22:33N 46°29' W 001°49'1 1.4
2016-Mar-20 21:33N 46°30' W 001°48'0 0.0
2016-Mar-20 20:33N 46°30' W 001°48'0 0.0
2016-Mar-20 19:33N 46°30' W 001°48'0 0.0
2016-Mar-20 18:33N 46°30' W 001°48'0 0.0
2016-Mar-20 17:33N 46°30' W 001°48'0 0.0
2016-Mar-20 16:33N 46°30' W 001°48'0 0.0
2016-Mar-20 15:33N 46°30' W 001°48'0 0.0
2016-Mar-20 14:33N 46°30' W 001°48'0 0.0
2016-Mar-20 13:33N 46°30' W 001°48'0 0.2
2016-Mar-20 12:33N 46°30' W 001°47'3 3.3
2016-Mar-20 11:33N 46°28' W 001°51'9 8.6
2016-Mar-20 10:33N 46°35' W 001°59'  
2016-Mar-17 02:19N 46°34' W 002°07'7 9.0
2016-Mar-17 01:32N 46°31' W 001°57'7 7.0
2016-Mar-17 00:33N 46°30' W 001°48'0 0.5
2016-Mar-16 23:33N 46°30' W 001°47'0 0.0
2016-Mar-16 22:33N 46°30' W 001°47'4 3.9
2016-Mar-16 21:33N 46°29' W 001°53'9 8.9
2016-Mar-16 20:31N 46°32' W 002°05'  

Dump ship's entire track history